createdAt,value
2022-12-05T00:01:03.262Z,86.63
2022-12-05T00:02:24.264Z,86.58
2022-12-05T00:03:45.760Z,86.68
2022-12-05T00:05:08.397Z,87.26
2022-12-05T00:06:29.809Z,87.17
2022-12-05T00:07:50.957Z,87.39
2022-12-05T00:09:14.869Z,87.70
2022-12-05T00:10:35.858Z,87.79
2022-12-05T00:11:57.756Z,87.81
2022-12-05T00:13:16.605Z,87.98
2022-12-05T00:14:37.553Z,87.49
2022-12-05T00:15:55.883Z,87.77
2022-12-05T00:17:16.812Z,87.41
2022-12-05T00:18:35.247Z,87.35
2022-12-05T00:19:57.072Z,87.20
2022-12-05T00:21:19.388Z,87.48
2022-12-05T00:22:41.665Z,87.71
2022-12-05T00:24:02.599Z,87.35
2022-12-05T00:25:26.507Z,87.52
2022-12-05T00:26:48.131Z,87.28
2022-12-05T00:28:06.611Z,87.08
2022-12-05T00:29:28.210Z,86.81
2022-12-05T00:30:46.509Z,87.12
2022-12-05T00:32:07.673Z,86.91
2022-12-05T00:33:25.886Z,86.96
2022-12-05T00:34:46.902Z,86.91
2022-12-05T00:36:08.572Z,86.81
2022-12-05T00:37:32.688Z,87.27
2022-12-05T00:38:52.359Z,87.07
2022-12-05T00:40:13.983Z,87.17
2022-12-05T00:41:35.203Z,87.12
2022-12-05T00:42:56.761Z,87.09
2022-12-05T00:44:15.051Z,87.02
2022-12-05T00:45:37.476Z,87.42
2022-12-05T00:46:55.695Z,87.13
2022-12-05T00:48:16.701Z,87.11
2022-12-05T00:49:35.098Z,87.02
2022-12-05T00:51:05.469Z,87.42
2022-12-05T00:52:26.601Z,86.89
2022-12-05T00:53:46.374Z,87.16
2022-12-05T00:55:08.213Z,86.98
2022-12-05T00:56:29.544Z,87.05
2022-12-05T00:57:53.111Z,87.44
2022-12-05T00:59:20.596Z,86.86
2022-12-05T01:00:39.124Z,86.57
2022-12-05T01:02:00.542Z,86.84
2022-12-05T01:03:19.025Z,86.51
2022-12-05T01:04:40.382Z,86.81
2022-12-05T01:06:00.549Z,87.13
2022-12-05T01:07:21.666Z,86.74
2022-12-05T01:08:40.509Z,86.79
2022-12-05T01:10:01.412Z,86.98
2022-12-05T01:11:21.300Z,86.79
2022-12-05T01:12:42.494Z,87.23
2022-12-05T01:14:03.680Z,87.21
2022-12-05T01:15:24.679Z,87.35
2022-12-05T01:16:46.912Z,87.35
2022-12-05T01:18:08.277Z,87.44
2022-12-05T01:19:33.106Z,87.57
2022-12-05T01:20:53.285Z,87.38
2022-12-05T01:22:14.230Z,87.77
2022-12-05T01:23:32.645Z,87.58
2022-12-05T01:24:53.574Z,87.20
2022-12-05T01:26:15.953Z,87.35
2022-12-05T01:27:37.005Z,87.28
2022-12-05T01:28:56.831Z,87.40
2022-12-05T01:30:20.610Z,87.38
2022-12-05T01:31:42.648Z,87.12
2022-12-05T01:33:00.955Z,87.14
2022-12-05T01:34:23.391Z,86.67
2022-12-05T01:35:42.942Z,86.46
2022-12-05T01:37:04.076Z,86.51
2022-12-05T01:38:22.296Z,86.50
2022-12-05T01:39:43.233Z,86.34
2022-12-05T01:41:03.351Z,86.44
2022-12-05T01:42:26.331Z,86.64
2022-12-05T01:44:00.645Z,86.61
2022-12-05T01:45:35.724Z,86.66
2022-12-05T01:46:55.270Z,86.59
2022-12-05T01:48:22.918Z,86.74
2022-12-05T01:49:44.164Z,86.77
2022-12-05T01:51:06.557Z,86.76
2022-12-05T01:52:31.680Z,86.26
2022-12-05T01:53:52.916Z,86.31
2022-12-05T01:55:18.217Z,86.21
2022-12-05T01:56:43.407Z,86.44
2022-12-05T01:58:05.784Z,86.06
2022-12-05T01:59:31.454Z,86.20
2022-12-05T02:00:52.578Z,86.17
2022-12-05T02:02:16.544Z,86.40
2022-12-05T02:03:38.286Z,86.48
2022-12-05T02:05:08.661Z,86.38
2022-12-05T02:06:31.506Z,86.61
2022-12-05T02:07:50.186Z,86.61
2022-12-05T02:09:11.203Z,86.56
2022-12-05T02:10:37.055Z,86.46
2022-12-05T02:12:03.986Z,86.18
2022-12-05T02:14:19.584Z,85.71
2022-12-05T02:15:52.412Z,85.93
2022-12-05T02:17:39.470Z,85.60
2022-12-05T02:19:28.975Z,86.09
2022-12-05T02:21:01.016Z,85.43
2022-12-05T02:23:00.377Z,86.27
2022-12-05T02:24:59.060Z,85.90
2022-12-05T02:26:51.206Z,86.10
2022-12-05T02:28:39.338Z,86.25
2022-12-05T02:30:11.186Z,86.16
2022-12-05T02:31:27.740Z,85.93
2022-12-05T02:33:10.193Z,85.75
2022-12-05T02:34:28.358Z,85.77
2022-12-05T02:35:54.381Z,85.90
2022-12-05T02:37:13.807Z,85.90
2022-12-05T02:38:33.227Z,85.63
2022-12-05T02:39:47.946Z,85.60
2022-12-05T02:41:09.311Z,85.61
2022-12-05T02:42:28.889Z,85.51
2022-12-05T02:43:46.083Z,85.34
2022-12-05T02:45:02.073Z,85.35
2022-12-05T02:46:17.368Z,85.44
2022-12-05T02:47:31.268Z,85.89
2022-12-05T02:48:41.823Z,85.47
2022-12-05T02:49:45.755Z,85.29
2022-12-05T02:50:57.842Z,85.24
2022-12-05T02:52:08.482Z,85.52
2022-12-05T02:53:20.793Z,85.71
2022-12-05T02:54:34.414Z,85.40
2022-12-05T02:55:44.943Z,84.90
2022-12-05T02:56:55.609Z,85.47
2022-12-05T02:58:10.351Z,85.59
2022-12-05T02:59:19.898Z,85.61
2022-12-05T03:00:31.788Z,85.26
2022-12-05T03:01:35.528Z,85.20
2022-12-05T03:02:44.750Z,85.39
2022-12-05T03:03:49.678Z,85.02
2022-12-05T03:05:01.217Z,85.12
2022-12-05T03:06:13.822Z,85.08
2022-12-05T03:07:26.701Z,85.33
2022-12-05T03:08:38.106Z,85.01
2022-12-05T03:09:52.783Z,84.74
2022-12-05T03:11:03.615Z,85.04
2022-12-05T03:12:19.279Z,85.00
2022-12-05T03:13:33.174Z,85.11
2022-12-05T03:14:50.116Z,85.08
2022-12-05T03:16:15.246Z,85.02
2022-12-05T03:17:25.193Z,84.96
2022-12-05T03:18:39.326Z,85.08
2022-12-05T03:19:58.426Z,85.07
2022-12-05T03:21:19.080Z,85.13
2022-12-05T03:22:33.177Z,85.35
2022-12-05T03:23:49.146Z,85.29
2022-12-05T03:24:53.811Z,85.22
2022-12-05T03:26:15.220Z,85.37
2022-12-05T03:27:34.726Z,85.15
2022-12-05T03:29:00.451Z,85.26
2022-12-05T03:30:13.165Z,85.55
2022-12-05T03:31:37.856Z,85.73
2022-12-05T03:32:54.836Z,85.68
2022-12-05T03:34:04.124Z,85.53
2022-12-05T03:35:23.831Z,85.66
2022-12-05T03:36:41.170Z,86.10
2022-12-05T03:37:56.739Z,86.50
2022-12-05T03:39:11.217Z,86.51
2022-12-05T03:40:30.796Z,86.36
2022-12-05T03:41:43.233Z,86.35
2022-12-05T03:43:05.717Z,86.37
2022-12-05T03:44:18.610Z,86.03
2022-12-05T03:45:39.829Z,85.63
2022-12-05T03:46:57.092Z,85.90
2022-12-05T03:48:17.897Z,85.93
2022-12-05T03:49:34.131Z,85.91
2022-12-05T03:50:51.083Z,85.93
2022-12-05T03:52:07.671Z,85.80
2022-12-05T03:53:26.206Z,85.85
2022-12-05T03:54:38.652Z,85.95
2022-12-05T03:56:05.056Z,86.29
2022-12-05T03:57:17.825Z,86.18
2022-12-05T03:58:34.693Z,86.65
2022-12-05T03:59:50.196Z,86.48
2022-12-05T04:01:02.475Z,86.43
2022-12-05T04:02:19.017Z,86.62
2022-12-05T04:03:40.067Z,86.59
2022-12-05T04:04:55.111Z,86.17
2022-12-05T04:06:07.170Z,86.35
2022-12-05T04:07:18.357Z,86.29
2022-12-05T04:08:30.272Z,86.37
2022-12-05T04:09:48.060Z,86.39
2022-12-05T04:10:59.860Z,86.67
2022-12-05T04:12:13.763Z,86.38
2022-12-05T04:13:25.923Z,86.51
2022-12-05T04:14:43.695Z,86.88
2022-12-05T04:16:15.784Z,86.95
2022-12-05T04:17:34.249Z,86.32
2022-12-05T04:18:50.683Z,86.10
2022-12-05T04:20:16.512Z,86.10
2022-12-05T04:21:41.511Z,86.02
2022-12-05T04:22:49.127Z,86.04
2022-12-05T04:24:08.746Z,86.32
2022-12-05T04:25:33.018Z,86.08
2022-12-05T04:26:53.724Z,86.31
2022-12-05T04:28:21.437Z,86.20
2022-12-05T04:29:35.613Z,86.29
2022-12-05T04:30:53.774Z,86.43
2022-12-05T04:32:07.251Z,85.97
2022-12-05T04:33:32.442Z,86.26
2022-12-05T04:34:42.212Z,86.14
2022-12-05T04:35:57.782Z,86.12
2022-12-05T04:37:13.049Z,85.98
2022-12-05T04:38:29.848Z,86.15
2022-12-05T04:39:46.982Z,86.29
2022-12-05T04:41:02.320Z,86.66
2022-12-05T04:42:15.027Z,86.60
2022-12-05T04:43:25.986Z,86.73
2022-12-05T04:44:38.317Z,87.53
2022-12-05T04:45:47.935Z,87.26
2022-12-05T04:46:57.746Z,87.46
2022-12-05T04:48:17.224Z,87.48
2022-12-05T04:49:29.820Z,87.45
2022-12-05T04:50:42.829Z,87.35
2022-12-05T04:51:53.181Z,87.42
2022-12-05T04:53:04.291Z,87.63
2022-12-05T04:54:26.699Z,87.44
2022-12-05T04:55:42.679Z,87.24
2022-12-05T04:56:58.124Z,87.17
2022-12-05T04:58:14.609Z,87.22
2022-12-05T04:59:21.621Z,87.50
2022-12-05T05:00:29.197Z,87.03
2022-12-05T05:01:43.547Z,87.07
2022-12-05T05:02:59.217Z,86.88
2022-12-05T05:04:14.139Z,87.00
2022-12-05T05:05:24.944Z,86.77
2022-12-05T05:06:29.373Z,87.20
2022-12-05T05:07:35.506Z,87.20
2022-12-05T05:08:49.863Z,87.09
2022-12-05T05:09:56.409Z,87.26
2022-12-05T05:11:15.948Z,87.12
2022-12-05T05:12:22.105Z,86.63
2022-12-05T05:13:26.238Z,86.50
2022-12-05T05:14:32.893Z,86.27
2022-12-05T05:15:36.641Z,86.12
2022-12-05T05:16:47.732Z,86.00
2022-12-05T05:17:51.172Z,85.42
2022-12-05T05:18:58.079Z,85.62
2022-12-05T05:20:20.323Z,85.59
2022-12-05T05:21:30.269Z,85.81
2022-12-05T05:22:34.684Z,85.64
2022-12-05T05:23:40.807Z,85.64
2022-12-05T05:24:44.297Z,85.70
2022-12-05T05:25:57.758Z,85.64
2022-12-05T05:27:01.316Z,85.99
2022-12-05T05:28:08.999Z,85.68
2022-12-05T05:29:14.775Z,85.52
2022-12-05T05:30:23.039Z,85.41
2022-12-05T05:31:27.628Z,85.39
2022-12-05T05:32:36.080Z,85.47
2022-12-05T05:33:44.393Z,85.72
2022-12-05T05:34:48.060Z,86.06
2022-12-05T05:35:56.872Z,85.92
2022-12-05T05:37:02.519Z,85.76
2022-12-05T05:38:09.050Z,85.81
2022-12-05T05:39:15.537Z,85.71
2022-12-05T05:40:23.639Z,85.80
2022-12-05T05:41:32.981Z,86.11
2022-12-05T05:42:39.646Z,85.97
2022-12-05T05:43:45.164Z,85.99
2022-12-05T05:44:52.155Z,86.02
2022-12-05T05:45:55.828Z,85.78
2022-12-05T05:47:02.794Z,85.87
2022-12-05T05:48:07.188Z,86.17
2022-12-05T05:49:13.989Z,86.10
2022-12-05T05:50:21.717Z,86.25
2022-12-05T05:51:32.465Z,86.11
2022-12-05T05:52:38.566Z,86.12
2022-12-05T05:53:45.333Z,86.20
2022-12-05T05:54:48.972Z,86.22
2022-12-05T05:55:56.253Z,86.00
2022-12-05T05:56:59.783Z,85.90
2022-12-05T05:58:06.015Z,85.81
2022-12-05T05:59:13.265Z,86.06
2022-12-05T06:00:18.303Z,86.00
2022-12-05T06:01:25.676Z,86.19
2022-12-05T06:02:34.082Z,86.01
2022-12-05T06:03:41.796Z,86.47
2022-12-05T06:04:45.597Z,86.82
2022-12-05T06:06:01.130Z,86.83
2022-12-05T06:07:08.186Z,86.79
2022-12-05T06:08:14.645Z,86.60
2022-12-05T06:09:21.005Z,86.52
2022-12-05T06:10:24.687Z,86.58
2022-12-05T06:11:32.101Z,86.92
2022-12-05T06:12:39.737Z,86.70
2022-12-05T06:13:44.092Z,86.87
2022-12-05T06:14:51.907Z,86.43
2022-12-05T06:15:58.192Z,86.66
2022-12-05T06:17:03.158Z,86.66
2022-12-05T06:18:10.334Z,86.82
2022-12-05T06:19:14.373Z,87.06
2022-12-05T06:20:20.794Z,86.69
2022-12-05T06:21:26.130Z,86.90
2022-12-05T06:22:36.289Z,86.77
2022-12-05T06:23:40.821Z,86.65
2022-12-05T06:24:47.044Z,86.25
2022-12-05T06:25:56.953Z,86.23
2022-12-05T06:27:03.086Z,86.39
2022-12-05T06:28:09.553Z,86.03
2022-12-05T06:29:14.324Z,86.38
2022-12-05T06:30:21.018Z,85.86
2022-12-05T06:31:28.632Z,86.09
2022-12-05T06:32:34.984Z,86.17
2022-12-05T06:33:41.136Z,86.29
2022-12-05T06:34:48.289Z,86.43
2022-12-05T06:36:04.680Z,86.31
2022-12-05T06:37:11.393Z,86.60
2022-12-05T06:38:17.667Z,87.02
2022-12-05T06:39:25.051Z,86.66
2022-12-05T06:40:30.113Z,86.89
2022-12-05T06:41:36.670Z,86.52
2022-12-05T06:42:43.346Z,86.67
2022-12-05T06:43:50.804Z,86.82
2022-12-05T06:44:54.496Z,86.65
2022-12-05T06:46:01.680Z,86.81
2022-12-05T06:47:05.912Z,86.97
2022-12-05T06:48:12.237Z,86.83
2022-12-05T06:49:16.088Z,86.77
2022-12-05T06:50:23.054Z,86.80
2022-12-05T06:51:27.771Z,86.42
2022-12-05T06:52:33.835Z,86.52
2022-12-05T06:53:41.017Z,86.17
2022-12-05T06:54:49.399Z,85.99
2022-12-05T06:56:00.625Z,85.94
2022-12-05T06:57:07.870Z,85.94
2022-12-05T06:58:13.893Z,85.88
2022-12-05T06:59:20.447Z,85.94
2022-12-05T07:00:39.433Z,86.03
2022-12-05T07:01:44.218Z,86.11
2022-12-05T07:02:55.449Z,85.88
2022-12-05T07:03:59.286Z,85.97
2022-12-05T07:05:05.558Z,85.92
2022-12-05T07:06:11.695Z,85.85
2022-12-05T07:07:18.008Z,86.20
2022-12-05T07:08:23.133Z,86.46
2022-12-05T07:09:45.571Z,86.62
2022-12-05T07:10:56.177Z,86.33
2022-12-05T07:11:59.856Z,86.28
2022-12-05T07:13:06.130Z,86.37
2022-12-05T07:14:19.278Z,85.63
2022-12-05T07:15:36.637Z,85.77
2022-12-05T07:16:40.176Z,85.44
2022-12-05T07:17:46.444Z,85.70
2022-12-05T07:18:50.578Z,85.86
2022-12-05T07:19:58.256Z,85.78
2022-12-05T07:21:14.792Z,86.02
2022-12-05T07:22:23.524Z,85.94
2022-12-05T07:23:34.199Z,85.63
2022-12-05T07:24:43.162Z,85.48
2022-12-05T07:25:47.500Z,85.37
2022-12-05T07:26:53.824Z,85.40
2022-12-05T07:27:57.476Z,85.44
2022-12-05T07:29:05.237Z,85.12
2022-12-05T07:30:10.608Z,85.40
2022-12-05T07:31:22.862Z,85.39
2022-12-05T07:32:26.452Z,85.67
2022-12-05T07:33:33.320Z,86.24
2022-12-05T07:34:36.870Z,86.31
2022-12-05T07:35:43.017Z,86.34
2022-12-05T07:36:49.977Z,86.42
2022-12-05T07:37:53.465Z,86.37
2022-12-05T07:39:01.494Z,86.37
2022-12-05T07:40:10.185Z,86.24
2022-12-05T07:41:23.485Z,85.73
2022-12-05T07:42:30.383Z,85.64
2022-12-05T07:43:36.691Z,85.47
2022-12-05T07:44:42.853Z,85.34
2022-12-05T07:45:46.637Z,85.54
2022-12-05T07:46:52.720Z,85.76
2022-12-05T07:47:57.197Z,85.75
2022-12-05T07:49:03.379Z,85.65
2022-12-05T07:50:12.032Z,85.72
2022-12-05T07:51:18.328Z,85.53
2022-12-05T07:52:24.393Z,85.65
2022-12-05T07:53:31.380Z,85.25
2022-12-05T07:54:37.528Z,84.77
2022-12-05T07:55:46.165Z,84.80
2022-12-05T07:56:49.626Z,85.25
2022-12-05T07:57:55.704Z,85.35
2022-12-05T07:59:00.064Z,85.16
2022-12-05T08:00:10.122Z,84.81
2022-12-05T08:01:20.670Z,84.77
2022-12-05T08:02:27.714Z,84.89
2022-12-05T08:03:31.533Z,84.82
2022-12-05T08:04:38.608Z,84.93
2022-12-05T08:05:42.083Z,84.99
2022-12-05T08:06:48.359Z,85.44
2022-12-05T08:07:56.154Z,85.39
2022-12-05T08:08:59.821Z,85.09
2022-12-05T08:10:07.813Z,85.07
2022-12-05T08:11:17.660Z,85.15
2022-12-05T08:12:23.776Z,85.44
2022-12-05T08:13:29.924Z,85.49
2022-12-05T08:14:36.061Z,85.44
2022-12-05T08:15:40.329Z,85.54
2022-12-05T08:16:46.450Z,85.36
2022-12-05T08:17:52.626Z,85.10
2022-12-05T08:18:57.163Z,85.17
2022-12-05T08:20:03.253Z,85.09
2022-12-05T08:21:12.406Z,85.02
2022-12-05T08:22:18.666Z,85.04
2022-12-05T08:23:23.541Z,84.72
2022-12-05T08:24:30.052Z,84.06
2022-12-05T08:25:35.126Z,84.19
2022-12-05T08:26:45.620Z,83.99
2022-12-05T08:27:51.062Z,83.71
2022-12-05T08:29:02.025Z,83.90
2022-12-05T08:30:10.763Z,83.45
2022-12-05T08:31:18.418Z,83.35
2022-12-05T08:32:25.508Z,83.42
2022-12-05T08:33:30.835Z,83.66
2022-12-05T08:34:36.944Z,83.84
2022-12-05T08:35:40.330Z,84.46
2022-12-05T08:36:47.476Z,84.72
2022-12-05T08:37:55.530Z,84.84
2022-12-05T08:39:04.769Z,84.67
2022-12-05T08:40:10.147Z,84.04
2022-12-05T08:41:20.447Z,83.85
2022-12-05T08:42:29.315Z,83.81
2022-12-05T08:43:37.359Z,83.81
2022-12-05T08:44:40.885Z,83.24
2022-12-05T08:45:53.536Z,83.60
2022-12-05T08:47:00.827Z,83.83
2022-12-05T08:48:07.348Z,84.27
2022-12-05T08:49:12.867Z,84.16
2022-12-05T08:50:19.414Z,84.65
2022-12-05T08:51:22.923Z,84.07
2022-12-05T08:52:29.427Z,83.83
2022-12-05T08:53:40.943Z,83.92
2022-12-05T08:54:51.495Z,83.62
2022-12-05T08:55:57.702Z,83.47
2022-12-05T08:57:04.076Z,84.13
2022-12-05T08:58:10.359Z,83.97
2022-12-05T08:59:16.470Z,83.70
2022-12-05T09:00:21.766Z,83.30
2022-12-05T09:01:32.172Z,82.92
2022-12-05T09:02:38.586Z,83.19
2022-12-05T09:03:47.865Z,82.95
2022-12-05T09:04:55.212Z,82.96
2022-12-05T09:06:08.323Z,82.57
2022-12-05T09:07:14.631Z,82.77
2022-12-05T09:08:20.797Z,82.49
2022-12-05T09:09:27.880Z,82.08
2022-12-05T09:10:35.523Z,82.05
2022-12-05T09:11:49.113Z,81.92
2022-12-05T09:12:52.837Z,82.01
2022-12-05T09:14:05.103Z,81.63
2022-12-05T09:15:15.008Z,82.10
2022-12-05T09:16:22.675Z,82.34
2022-12-05T09:17:29.703Z,82.76
2022-12-05T09:18:33.378Z,82.87
2022-12-05T09:19:39.575Z,83.92
2022-12-05T09:20:45.706Z,83.98
2022-12-05T09:21:52.129Z,84.27
2022-12-05T09:22:58.979Z,84.00
2022-12-05T09:24:02.677Z,84.32
2022-12-05T09:25:12.977Z,84.14
2022-12-05T09:26:22.054Z,83.98
2022-12-05T09:27:28.135Z,84.03
2022-12-05T09:28:34.391Z,84.01
2022-12-05T09:29:43.244Z,84.24
2022-12-05T09:30:55.655Z,83.95
2022-12-05T09:32:01.758Z,84.04
2022-12-05T09:33:05.218Z,84.37
2022-12-05T09:34:14.314Z,84.26
2022-12-05T09:35:18.102Z,84.35
2022-12-05T09:36:27.540Z,84.47
2022-12-05T09:37:39.145Z,84.32
2022-12-05T09:38:47.058Z,83.63
2022-12-05T09:39:57.055Z,83.61
2022-12-05T09:41:46.824Z,82.64
2022-12-05T09:43:09.900Z,82.36
2022-12-05T09:44:47.446Z,83.18
2022-12-05T09:46:07.802Z,83.48
2022-12-05T09:47:32.590Z,82.72
2022-12-05T09:48:45.212Z,82.69
2022-12-05T09:49:57.917Z,82.40
2022-12-05T09:51:07.336Z,82.46
2022-12-05T09:52:27.402Z,82.33
2022-12-05T09:53:44.786Z,81.31
2022-12-05T09:54:49.558Z,81.36
2022-12-05T09:56:06.981Z,81.76
2022-12-05T09:57:13.441Z,81.61
2022-12-05T09:58:44.707Z,81.65
2022-12-05T09:59:51.641Z,81.24
2022-12-05T10:01:07.323Z,81.71
2022-12-05T10:02:41.196Z,81.14
2022-12-05T10:04:08.636Z,81.21
2022-12-05T10:05:28.193Z,81.57
2022-12-05T10:06:47.050Z,81.72
2022-12-05T10:08:12.124Z,81.38
2022-12-05T10:09:45.037Z,80.40
2022-12-05T10:11:05.361Z,81.18
2022-12-05T10:12:40.551Z,81.56
2022-12-05T10:14:06.744Z,81.28
2022-12-05T10:15:32.582Z,81.70
2022-12-05T10:16:52.727Z,81.75
2022-12-05T10:18:14.079Z,81.22
2022-12-05T10:19:32.017Z,81.63
2022-12-05T10:20:51.093Z,82.62
2022-12-05T10:22:07.661Z,83.43
2022-12-05T10:23:55.573Z,84.26
2022-12-05T10:24:59.896Z,84.16
2022-12-05T10:26:13.150Z,83.70
2022-12-05T10:27:27.541Z,83.79
2022-12-05T10:28:45.484Z,83.86
2022-12-05T10:30:07.671Z,83.18
2022-12-05T10:31:24.808Z,83.26
2022-12-05T10:32:40.340Z,82.76
2022-12-05T10:34:01.816Z,82.54
2022-12-05T10:35:22.665Z,82.39
2022-12-05T10:36:29.565Z,81.96
2022-12-05T10:37:35.862Z,81.80
2022-12-05T10:38:41.467Z,81.56
2022-12-05T10:39:49.477Z,81.25
2022-12-05T10:41:02.591Z,80.51
2022-12-05T10:42:13.169Z,81.07
2022-12-05T10:43:29.583Z,81.21
2022-12-05T10:44:41.938Z,81.08
2022-12-05T10:45:51.704Z,80.64
2022-12-05T10:47:02.043Z,80.95
2022-12-05T10:48:08.972Z,81.12
2022-12-05T10:49:16.257Z,81.17
2022-12-05T10:50:35.886Z,80.25
2022-12-05T10:51:43.892Z,80.43
2022-12-05T10:52:48.897Z,79.94
2022-12-05T10:53:56.522Z,79.17
2022-12-05T10:55:09.853Z,79.30
2022-12-05T10:56:45.280Z,79.57
2022-12-05T10:57:56.173Z,80.17
2022-12-05T10:59:00.440Z,80.01
2022-12-05T11:00:18.170Z,79.74
2022-12-05T11:01:28.746Z,79.21
2022-12-05T11:02:38.594Z,80.11
2022-12-05T11:03:44.782Z,79.58
2022-12-05T11:04:52.287Z,79.73
2022-12-05T11:06:02.960Z,80.34
2022-12-05T11:07:10.176Z,81.60
2022-12-05T11:08:48.217Z,82.52
2022-12-05T11:09:52.235Z,83.18
2022-12-05T11:11:10.679Z,83.30
2022-12-05T11:12:23.311Z,82.77
2022-12-05T11:13:29.996Z,82.63
2022-12-05T11:14:37.370Z,82.78
2022-12-05T11:15:55.272Z,81.97
2022-12-05T11:17:06.235Z,80.71
2022-12-05T11:18:33.459Z,80.57
2022-12-05T11:19:41.686Z,80.20
2022-12-05T11:20:49.713Z,79.83
2022-12-05T11:21:57.983Z,80.11
2022-12-05T11:23:32.464Z,79.33
2022-12-05T11:24:42.840Z,79.02
2022-12-05T11:26:04.184Z,79.08
2022-12-05T11:27:31.554Z,79.24
2022-12-05T11:28:38.675Z,78.81
2022-12-05T11:29:48.606Z,79.50
2022-12-05T11:31:03.625Z,78.98
2022-12-05T11:32:29.648Z,78.48
2022-12-05T11:33:40.880Z,78.68
2022-12-05T11:34:58.497Z,79.26
2022-12-05T11:36:17.153Z,79.66
2022-12-05T11:37:35.437Z,80.30
2022-12-05T11:38:45.304Z,80.67
2022-12-05T11:39:55.540Z,80.31
2022-12-05T11:41:41.055Z,80.93
2022-12-05T11:43:22.881Z,81.71
2022-12-05T11:45:10.871Z,81.80
2022-12-05T11:46:37.895Z,80.94
2022-12-05T11:48:25.297Z,81.35
2022-12-05T11:50:10.879Z,80.92
2022-12-05T11:51:44.775Z,80.50
2022-12-05T11:53:19.690Z,81.21
2022-12-05T11:55:08.741Z,80.82
2022-12-05T11:56:39.400Z,81.61
2022-12-05T11:58:11.330Z,82.05
2022-12-05T11:59:53.022Z,81.88
2022-12-05T12:01:21.659Z,81.95
2022-12-05T12:03:00.662Z,82.17
2022-12-05T12:04:42.615Z,81.97
2022-12-05T12:06:06.515Z,81.94
2022-12-05T12:07:41.841Z,81.50
2022-12-05T12:09:15.987Z,81.10
2022-12-05T12:10:36.253Z,81.17
2022-12-05T12:11:55.096Z,81.25
2022-12-05T12:13:33.390Z,81.68
2022-12-05T12:14:59.799Z,81.45
2022-12-05T12:16:25.906Z,81.40
2022-12-05T12:17:53.357Z,81.18
2022-12-05T12:19:34.365Z,80.18
2022-12-05T12:21:09.760Z,80.40
2022-12-05T12:22:50.576Z,79.95
2022-12-05T12:24:18.721Z,79.16
2022-12-05T12:25:45.422Z,78.62
2022-12-05T12:27:15.130Z,78.25
2022-12-05T12:28:42.473Z,77.83
2022-12-05T12:30:08.297Z,76.83
2022-12-05T12:31:45.917Z,76.84
2022-12-05T12:33:13.221Z,76.58
2022-12-05T12:34:51.937Z,76.01
2022-12-05T12:36:18.881Z,75.78
2022-12-05T12:37:44.717Z,75.59
2022-12-05T12:39:26.683Z,75.26
2022-12-05T12:40:46.868Z,75.25
2022-12-05T12:42:17.106Z,74.85
2022-12-05T12:43:54.511Z,74.33
2022-12-05T12:45:52.334Z,74.05
2022-12-05T12:47:02.134Z,73.84
2022-12-05T12:48:33.822Z,74.02
2022-12-05T12:50:05.304Z,73.84
2022-12-05T12:51:18.306Z,73.75
2022-12-05T12:52:33.225Z,73.96
2022-12-05T12:54:47.328Z,74.04
2022-12-05T12:56:13.234Z,73.49
2022-12-05T12:57:34.425Z,73.28
2022-12-05T12:58:57.337Z,73.45
2022-12-05T13:00:21.779Z,73.70
2022-12-05T13:01:44.244Z,73.71
2022-12-05T13:03:07.097Z,73.85
2022-12-05T13:04:23.567Z,74.61
2022-12-05T13:05:42.233Z,75.08
2022-12-05T13:07:00.294Z,74.45
2022-12-05T13:08:18.632Z,74.62
2022-12-05T13:09:33.380Z,74.81
2022-12-05T13:10:45.048Z,74.10
2022-12-05T13:11:56.521Z,74.52
2022-12-05T13:13:03.026Z,74.62
2022-12-05T13:14:18.828Z,74.52
2022-12-05T13:15:41.184Z,74.66
2022-12-05T13:16:55.084Z,73.90
2022-12-05T13:18:00.164Z,73.85
2022-12-05T13:19:09.815Z,73.68
2022-12-05T13:20:23.634Z,73.31
2022-12-05T13:21:31.662Z,73.76
2022-12-05T13:22:41.256Z,73.68
2022-12-05T13:23:55.241Z,74.33
2022-12-05T13:25:01.629Z,74.79
2022-12-05T13:26:15.610Z,74.40
2022-12-05T13:27:27.394Z,74.38
2022-12-05T13:28:42.308Z,74.96
2022-12-05T13:29:56.876Z,75.45
2022-12-05T13:31:06.693Z,75.30
2022-12-05T13:32:33.878Z,75.68
2022-12-05T13:33:49.661Z,75.93
2022-12-05T13:34:57.939Z,76.32
2022-12-05T13:36:26.356Z,77.19
2022-12-05T13:37:49.052Z,77.04
2022-12-05T13:39:20.114Z,76.67
2022-12-05T13:40:46.732Z,77.14
2022-12-05T13:42:11.737Z,77.19
2022-12-05T13:43:23.320Z,78.08
2022-12-05T13:44:41.006Z,78.10
2022-12-05T13:46:08.330Z,78.29
2022-12-05T13:47:34.375Z,78.58
2022-12-05T13:48:47.468Z,79.18
2022-12-05T13:50:00.840Z,79.51
2022-12-05T13:51:16.614Z,79.57
2022-12-05T13:52:30.694Z,79.71
2022-12-05T13:53:44.053Z,79.74
2022-12-05T13:55:04.302Z,79.83
2022-12-05T13:56:31.181Z,79.84
2022-12-05T13:57:56.578Z,80.23
2022-12-05T13:59:02.968Z,80.06
2022-12-05T14:00:34.462Z,79.31
2022-12-05T14:01:56.132Z,79.58
2022-12-05T14:03:41.063Z,79.19
2022-12-05T14:04:54.099Z,78.92
2022-12-05T14:06:01.771Z,78.87
2022-12-05T14:07:08.622Z,78.73
2022-12-05T14:08:56.595Z,78.89
2022-12-05T14:10:05.718Z,78.90
2022-12-05T14:11:15.475Z,79.28
2022-12-05T14:12:54.176Z,79.99
2022-12-05T14:14:04.682Z,79.79
2022-12-05T14:15:35.496Z,80.25
2022-12-05T14:16:48.640Z,80.73
2022-12-05T14:18:05.185Z,80.95
2022-12-05T14:19:55.588Z,80.89
2022-12-05T14:21:17.992Z,80.66
2022-12-05T14:23:10.881Z,81.00
2022-12-05T14:24:39.104Z,80.78
2022-12-05T14:26:20.864Z,80.72
2022-12-05T14:27:52.710Z,80.28
2022-12-05T14:29:33.998Z,79.92
2022-12-05T14:31:06.010Z,79.53
2022-12-05T14:32:28.557Z,78.79
2022-12-05T14:33:37.673Z,78.72
2022-12-05T14:35:01.983Z,78.63
2022-12-05T14:36:20.606Z,78.79
2022-12-05T14:37:33.952Z,78.59
2022-12-05T14:38:43.372Z,79.21
2022-12-05T14:39:57.372Z,78.91
2022-12-05T14:41:35.198Z,79.05
2022-12-05T14:42:48.124Z,79.77
2022-12-05T14:44:03.817Z,79.65
2022-12-05T14:45:36.145Z,79.98
2022-12-05T14:46:49.255Z,79.92
2022-12-05T14:48:00.999Z,79.93
2022-12-05T14:49:56.635Z,79.22
2022-12-05T14:51:04.994Z,79.14
2022-12-05T14:52:20.190Z,79.22
2022-12-05T14:53:39.845Z,80.09
2022-12-05T14:54:45.903Z,79.86
2022-12-05T14:55:57.283Z,80.06
2022-12-05T14:57:18.367Z,80.43
2022-12-05T14:58:39.923Z,81.06
2022-12-05T14:59:59.202Z,81.40
2022-12-05T15:01:09.455Z,81.20
2022-12-05T15:02:28.675Z,81.69
2022-12-05T15:03:41.216Z,81.89
2022-12-05T15:04:59.485Z,82.02
2022-12-05T15:06:16.281Z,82.06
2022-12-05T15:07:34.169Z,82.17
2022-12-05T15:08:55.068Z,82.20
2022-12-05T15:10:07.758Z,82.11
2022-12-05T15:11:28.571Z,82.18
2022-12-05T15:12:50.058Z,82.05
2022-12-05T15:13:59.576Z,81.86
2022-12-05T15:15:20.064Z,82.05
2022-12-05T15:16:25.289Z,81.72
2022-12-05T15:17:43.544Z,81.12
2022-12-05T15:18:56.777Z,81.25
2022-12-05T15:20:15.830Z,80.63
2022-12-05T15:21:32.114Z,79.86
2022-12-05T15:22:41.192Z,79.67
2022-12-05T15:23:48.890Z,79.67
2022-12-05T15:24:55.009Z,80.11
2022-12-05T15:26:17.566Z,79.83
2022-12-05T15:27:28.035Z,79.42
2022-12-05T15:28:34.199Z,79.59
2022-12-05T15:29:42.877Z,80.00
2022-12-05T15:30:58.980Z,80.69
2022-12-05T15:32:06.853Z,80.70
2022-12-05T15:33:17.024Z,80.81
2022-12-05T15:34:31.756Z,81.02
2022-12-05T15:35:38.732Z,80.88
2022-12-05T15:36:53.718Z,80.82
2022-12-05T15:38:09.586Z,80.43
2022-12-05T15:39:26.682Z,80.25
2022-12-05T15:40:40.844Z,80.31
2022-12-05T15:41:49.695Z,80.50
2022-12-05T15:42:59.376Z,80.52
2022-12-05T15:44:09.025Z,80.71
2022-12-05T15:45:23.740Z,80.67
2022-12-05T15:46:32.156Z,80.77
2022-12-05T15:47:38.307Z,80.98
2022-12-05T15:48:41.743Z,80.82
2022-12-05T15:49:49.858Z,80.80
2022-12-05T15:50:57.581Z,80.30
2022-12-05T15:52:29.857Z,80.19
2022-12-05T15:53:46.814Z,79.90
2022-12-05T15:54:56.806Z,80.08
2022-12-05T15:56:14.896Z,80.54
2022-12-05T15:57:35.340Z,81.25
2022-12-05T15:58:50.649Z,81.28
2022-12-05T16:00:09.181Z,81.31
2022-12-05T16:01:27.357Z,81.16
2022-12-05T16:02:50.140Z,80.99
2022-12-05T16:04:03.094Z,81.35
2022-12-05T16:05:24.602Z,81.06
2022-12-05T16:06:40.612Z,81.25
2022-12-05T16:07:47.617Z,80.57
2022-12-05T16:08:53.051Z,79.92
2022-12-05T16:10:03.384Z,79.83
2022-12-05T16:11:09.969Z,79.56
2022-12-05T16:12:30.401Z,78.95
2022-12-05T16:13:36.914Z,78.46
2022-12-05T16:14:59.527Z,78.98
2022-12-05T16:16:11.877Z,79.07